createdAt,value
2023-06-01T00:01:43.965Z,99.90
2023-06-01T00:04:13.606Z,99.90
2023-06-01T00:06:43.760Z,99.90
2023-06-01T00:09:13.701Z,99.90
2023-06-01T00:11:43.064Z,99.90
2023-06-01T00:14:12.647Z,99.90
2023-06-01T00:16:42.038Z,99.90
2023-06-01T00:19:11.437Z,99.90
2023-06-01T00:21:40.871Z,99.90
2023-06-01T00:24:10.897Z,99.90
2023-06-01T00:26:40.818Z,99.90
2023-06-01T00:29:10.261Z,99.90
2023-06-01T00:31:40.117Z,99.90
2023-06-01T00:34:09.728Z,99.90
2023-06-01T00:36:39.187Z,99.90
2023-06-01T00:39:08.669Z,99.90
2023-06-01T00:41:38.485Z,99.90
2023-06-01T00:44:08.004Z,99.90
2023-06-01T00:46:39.963Z,99.90
2023-06-01T00:49:10.276Z,99.90
2023-06-01T00:51:40.305Z,99.90
2023-06-01T00:54:10.837Z,99.90
2023-06-01T00:56:40.758Z,99.90
2023-06-01T00:59:11.648Z,99.90
2023-06-01T01:01:44.508Z,99.90
2023-06-01T01:04:30.894Z,99.90
2023-06-01T01:07:23.797Z,99.90
2023-06-01T01:10:28.784Z,99.90
2023-06-01T01:13:29.361Z,99.90
2023-06-01T01:16:29.577Z,99.90
2023-06-01T01:19:27.261Z,99.90
2023-06-01T01:22:41.290Z,99.90
2023-06-01T01:25:55.064Z,99.90
2023-06-01T01:28:50.103Z,99.90
2023-06-01T01:31:25.816Z,99.90
2023-06-01T01:33:59.115Z,99.90
2023-06-01T01:36:30.145Z,99.90
2023-06-01T01:38:59.622Z,99.90
2023-06-01T01:41:29.136Z,99.90
2023-06-01T01:44:01.265Z,99.90
2023-06-01T01:47:00.960Z,99.90
2023-06-01T01:50:01.301Z,99.90
2023-06-01T01:52:44.619Z,99.90
2023-06-01T01:55:26.911Z,99.90
2023-06-01T01:58:02.510Z,99.90
2023-06-01T02:00:39.425Z,99.90
2023-06-01T02:03:24.431Z,99.90
2023-06-01T02:05:54.143Z,99.90
2023-06-01T02:08:25.907Z,99.90
2023-06-01T02:11:00.226Z,99.90
2023-06-01T02:13:32.684Z,99.90
2023-06-01T02:16:08.173Z,99.90
2023-06-01T02:18:42.225Z,99.90
2023-06-01T02:21:16.681Z,99.90
2023-06-01T02:23:47.043Z,99.90
2023-06-01T02:26:21.137Z,99.90
2023-06-01T02:28:52.883Z,99.90
2023-06-01T02:31:28.297Z,99.90
2023-06-01T02:33:57.698Z,99.90
2023-06-01T02:36:27.482Z,99.90
2023-06-01T02:38:57.495Z,99.90
2023-06-01T02:41:27.516Z,99.90
2023-06-01T02:43:57.090Z,99.90
2023-06-01T02:46:27.262Z,99.90
2023-06-01T02:48:57.291Z,99.90
2023-06-01T02:51:26.784Z,99.90
2023-06-01T02:53:56.650Z,99.90
2023-06-01T02:56:26.024Z,99.90
2023-06-01T02:58:55.624Z,99.90
2023-06-01T03:01:25.070Z,99.90
2023-06-01T03:03:54.612Z,99.90
2023-06-01T03:06:24.244Z,99.90
2023-06-01T03:08:53.631Z,99.90
2023-06-01T03:11:23.037Z,99.90
2023-06-01T03:13:52.415Z,99.90
2023-06-01T03:16:21.944Z,99.90
2023-06-01T03:18:51.442Z,99.90
2023-06-01T03:21:21.219Z,99.90
2023-06-01T03:23:50.780Z,99.90
2023-06-01T03:26:23.208Z,99.90
2023-06-01T03:28:52.759Z,99.90
2023-06-01T03:31:22.227Z,99.90
2023-06-01T03:33:51.633Z,99.90
2023-06-01T03:36:21.029Z,99.90
2023-06-01T03:38:50.601Z,99.90
2023-06-01T03:41:19.959Z,99.90
2023-06-01T03:43:49.307Z,99.90
2023-06-01T03:46:19.881Z,99.90
2023-06-01T03:48:49.324Z,99.90
2023-06-01T03:51:18.715Z,99.90
2023-06-01T03:53:49.147Z,99.90
2023-06-01T03:56:18.955Z,99.90
2023-06-01T03:58:48.633Z,99.90
2023-06-01T04:01:18.934Z,99.90
2023-06-01T04:03:50.862Z,99.90
2023-06-01T04:06:20.610Z,99.90
2023-06-01T04:08:57.552Z,99.90
2023-06-01T04:11:27.001Z,99.90
2023-06-01T04:13:56.301Z,99.90
2023-06-01T04:16:25.762Z,99.90
2023-06-01T04:18:55.429Z,99.90
2023-06-01T04:21:25.919Z,99.90
2023-06-01T04:23:55.496Z,99.90
2023-06-01T04:26:26.542Z,99.90
2023-06-01T04:28:58.988Z,99.70
2023-06-01T04:31:28.581Z,99.70
2023-06-01T04:33:58.552Z,99.50
2023-06-01T04:36:29.453Z,99.70
2023-06-01T04:38:59.406Z,98.70
2023-06-01T04:41:30.468Z,98.60
2023-06-01T04:44:00.971Z,98.20
2023-06-01T04:46:33.236Z,98.00
2023-06-01T04:49:03.241Z,97.70
2023-06-01T04:51:33.176Z,97.20
2023-06-01T04:54:04.165Z,96.50
2023-06-01T04:56:33.920Z,96.80
2023-06-01T04:59:03.705Z,96.20
2023-06-01T05:01:33.445Z,95.90
2023-06-01T05:04:02.873Z,95.90
2023-06-01T05:06:32.654Z,96.00
2023-06-01T05:09:02.168Z,95.70
2023-06-01T05:11:31.578Z,94.60
2023-06-01T05:14:03.690Z,94.30
2023-06-01T05:16:33.789Z,94.40
2023-06-01T05:19:03.349Z,93.70
2023-06-01T05:21:34.183Z,93.80
2023-06-01T05:24:03.658Z,93.90
2023-06-01T05:26:33.025Z,94.10
2023-06-01T05:29:02.527Z,94.20
2023-06-01T05:31:32.946Z,94.00
2023-06-01T05:34:02.837Z,94.00
2023-06-01T05:36:33.980Z,94.20
2023-06-01T05:39:03.385Z,94.30
2023-06-01T05:41:33.149Z,93.80
2023-06-01T05:44:02.702Z,93.80
2023-06-01T05:46:32.095Z,93.90
2023-06-01T05:49:01.896Z,93.50
2023-06-01T05:51:31.320Z,93.60
2023-06-01T05:54:01.040Z,93.60
2023-06-01T05:56:30.432Z,94.10
2023-06-01T05:59:01.528Z,94.00
2023-06-01T06:01:31.013Z,93.80
2023-06-01T06:04:00.415Z,93.70
2023-06-01T06:06:30.055Z,93.00
2023-06-01T06:08:59.441Z,92.80
2023-06-01T06:11:28.873Z,92.60
2023-06-01T06:13:58.301Z,92.00
2023-06-01T06:16:27.692Z,91.80
2023-06-01T06:18:57.213Z,91.50
2023-06-01T06:21:26.516Z,90.60
2023-06-01T06:24:00.935Z,90.20
2023-06-01T06:26:30.263Z,90.40
2023-06-01T06:28:59.971Z,90.10
2023-06-01T06:31:29.518Z,89.70
2023-06-01T06:33:59.024Z,89.30
2023-06-01T06:36:28.351Z,88.20
2023-06-01T06:38:57.656Z,87.90
2023-06-01T06:41:27.242Z,87.90
2023-06-01T06:43:56.601Z,87.30
2023-06-01T06:46:26.045Z,87.80
2023-06-01T06:48:55.400Z,87.90
2023-06-01T06:51:25.031Z,87.60
2023-06-01T06:53:54.730Z,87.30
2023-06-01T06:56:24.018Z,88.10
2023-06-01T06:59:06.305Z,87.20
2023-06-01T07:01:41.847Z,87.20
2023-06-01T07:04:11.973Z,86.10
2023-06-01T07:06:41.423Z,86.30
2023-06-01T07:09:11.637Z,85.40
2023-06-01T07:11:45.002Z,85.90
2023-06-01T07:14:14.687Z,86.00
2023-06-01T07:16:44.195Z,85.70
2023-06-01T07:19:14.277Z,84.90
2023-06-01T07:21:44.129Z,85.60
2023-06-01T07:24:13.904Z,85.30
2023-06-01T07:26:43.232Z,85.60
2023-06-01T07:29:16.258Z,84.80
2023-06-01T07:31:45.704Z,84.70
2023-06-01T07:34:15.128Z,85.70
2023-06-01T07:36:47.455Z,86.50
2023-06-01T07:39:17.325Z,86.10
2023-06-01T07:41:52.568Z,86.10
2023-06-01T07:44:22.905Z,85.60
2023-06-01T07:46:52.231Z,85.60
2023-06-01T07:49:21.661Z,84.80
2023-06-01T07:51:53.709Z,84.10
2023-06-01T07:54:23.348Z,84.80
2023-06-01T07:56:53.146Z,85.00
2023-06-01T07:59:26.128Z,85.20
2023-06-01T08:01:56.494Z,84.80
2023-06-01T08:04:26.856Z,83.90
2023-06-01T08:06:57.872Z,84.00
2023-06-01T08:09:27.888Z,84.30
2023-06-01T08:11:57.500Z,84.90
2023-06-01T08:14:27.262Z,84.40
2023-06-01T08:16:56.716Z,84.50
2023-06-01T08:19:26.145Z,85.20
2023-06-01T08:21:55.905Z,84.90
2023-06-01T08:24:27.197Z,84.20
2023-06-01T08:26:58.666Z,83.00
2023-06-01T08:29:42.076Z,83.20
2023-06-01T08:32:12.852Z,84.20
2023-06-01T08:34:42.671Z,82.40
2023-06-01T08:37:12.551Z,81.50
2023-06-01T08:39:42.628Z,80.80
2023-06-01T08:42:50.126Z,80.90
2023-06-01T08:45:20.215Z,81.20
2023-06-01T08:47:53.134Z,82.30
2023-06-01T08:50:23.568Z,81.20
2023-06-01T08:52:59.281Z,81.80
2023-06-01T08:55:33.276Z,81.10
2023-06-01T08:58:03.447Z,81.50
2023-06-01T09:00:35.582Z,80.70
2023-06-01T09:03:05.689Z,80.20
2023-06-01T09:05:35.101Z,80.30
2023-06-01T09:08:05.272Z,79.30
2023-06-01T09:10:34.654Z,79.60
2023-06-01T09:13:05.569Z,80.30
2023-06-01T09:15:35.126Z,79.60
2023-06-01T09:18:15.639Z,79.60
2023-06-01T09:20:46.551Z,80.10
2023-06-01T09:23:28.132Z,79.30
2023-06-01T09:26:14.285Z,79.20
2023-06-01T09:28:56.372Z,79.60
2023-06-01T09:31:50.349Z,79.00
2023-06-01T09:34:22.609Z,79.00
2023-06-01T09:36:56.880Z,78.60
2023-06-01T09:39:28.138Z,78.60
2023-06-01T09:42:04.249Z,79.50
2023-06-01T09:44:39.665Z,79.10
2023-06-01T09:47:14.770Z,78.70
2023-06-01T09:49:46.770Z,79.50
2023-06-01T09:52:19.169Z,79.20
2023-06-01T09:54:51.965Z,79.80
2023-06-01T09:57:32.984Z,79.30
2023-06-01T10:00:08.990Z,79.50
2023-06-01T10:02:43.585Z,79.90
2023-06-01T10:05:13.804Z,80.00
2023-06-01T10:07:43.620Z,80.40
2023-06-01T10:10:17.862Z,80.50
2023-06-01T10:12:48.246Z,80.30
2023-06-01T10:15:30.422Z,80.40
2023-06-01T10:18:02.348Z,80.70
2023-06-01T10:20:41.653Z,80.00
2023-06-01T10:23:22.841Z,80.60
2023-06-01T10:26:02.785Z,81.10
2023-06-01T10:28:34.230Z,81.30
2023-06-01T10:31:40.270Z,81.20
2023-06-01T10:34:14.385Z,81.40
2023-06-01T10:37:07.200Z,81.90
2023-06-01T10:39:39.651Z,82.10
2023-06-01T10:42:15.433Z,81.20
2023-06-01T10:44:54.288Z,81.20
2023-06-01T10:47:23.561Z,81.80
2023-06-01T10:49:56.248Z,81.40
2023-06-01T10:52:40.365Z,82.10
2023-06-01T10:55:10.479Z,81.80
2023-06-01T10:57:46.131Z,82.10
2023-06-01T11:00:29.472Z,82.50
2023-06-01T11:03:09.163Z,82.00
2023-06-01T11:05:53.642Z,82.20
2023-06-01T11:08:23.733Z,81.90
2023-06-01T11:11:02.668Z,81.70
2023-06-01T11:13:41.619Z,82.30
2023-06-01T11:16:20.945Z,82.60
2023-06-01T11:19:02.928Z,83.30
2023-06-01T11:21:45.363Z,83.50
2023-06-01T11:24:17.498Z,84.20
2023-06-01T11:26:52.414Z,84.10
2023-06-01T11:29:25.353Z,84.50
2023-06-01T11:32:01.308Z,85.00
2023-06-01T11:34:45.777Z,85.20
2023-06-01T11:37:21.688Z,85.60
2023-06-01T11:39:51.653Z,86.20
2023-06-01T11:42:23.925Z,86.50
2023-06-01T11:45:02.736Z,86.90
2023-06-01T11:47:33.412Z,87.20
2023-06-01T11:50:02.977Z,87.90
2023-06-01T11:52:32.661Z,88.20
2023-06-01T11:55:08.628Z,88.30
2023-06-01T11:57:38.130Z,88.50
2023-06-01T12:00:17.456Z,88.80
2023-06-01T12:02:47.017Z,89.10
2023-06-01T12:05:16.654Z,89.30
2023-06-01T12:07:55.592Z,89.40
2023-06-01T12:10:25.804Z,89.70
2023-06-01T12:12:55.471Z,90.20
2023-06-01T12:15:25.264Z,90.20
2023-06-01T12:17:59.169Z,90.40
2023-06-01T12:20:34.216Z,90.60
2023-06-01T12:23:16.021Z,90.60
2023-06-01T12:26:01.193Z,90.70
2023-06-01T12:28:37.660Z,91.10
2023-06-01T12:31:16.050Z,91.20
2023-06-01T12:33:47.552Z,91.10
2023-06-01T12:36:37.803Z,91.30
2023-06-01T12:39:08.124Z,91.40
2023-06-01T12:41:37.693Z,91.60
2023-06-01T12:44:07.533Z,91.50
2023-06-01T12:46:37.710Z,91.60
2023-06-01T12:49:21.142Z,91.70
2023-06-01T12:51:50.676Z,91.70
2023-06-01T12:54:20.716Z,91.80
2023-06-01T12:56:54.373Z,91.70
2023-06-01T12:59:23.802Z,91.90
2023-06-01T13:01:53.212Z,91.90
2023-06-01T13:04:23.474Z,92.00
2023-06-01T13:06:53.144Z,91.90
2023-06-01T13:09:22.547Z,92.00
2023-06-01T13:11:52.592Z,91.80
2023-06-01T13:14:22.107Z,91.90
2023-06-01T13:16:51.930Z,92.20
2023-06-01T13:19:21.452Z,91.90
2023-06-01T13:21:50.959Z,92.00
2023-06-01T13:24:20.682Z,92.00
2023-06-01T13:26:50.192Z,92.00
2023-06-01T13:29:19.722Z,92.10
2023-06-01T13:31:49.277Z,92.10
2023-06-01T13:34:23.021Z,92.00
2023-06-01T13:36:52.517Z,92.20
2023-06-01T13:39:21.922Z,92.30
2023-06-01T13:41:51.322Z,92.30
2023-06-01T13:44:21.566Z,92.40
2023-06-01T13:46:51.709Z,92.70
2023-06-01T13:49:21.592Z,92.80
2023-06-01T13:51:51.591Z,93.20
2023-06-01T13:54:21.421Z,93.70
2023-06-01T13:56:59.948Z,93.70
2023-06-01T13:59:30.675Z,93.50
2023-06-01T14:02:06.170Z,93.30
2023-06-01T14:04:35.682Z,93.90
2023-06-01T14:07:05.100Z,94.00
2023-06-01T14:09:34.503Z,93.80
2023-06-01T14:12:10.753Z,93.80
2023-06-01T14:14:40.636Z,93.60
2023-06-01T14:17:10.202Z,93.80
2023-06-01T14:19:39.898Z,93.90
2023-06-01T14:22:09.331Z,93.80
2023-06-01T14:24:38.906Z,94.00
2023-06-01T14:27:11.682Z,94.20
2023-06-01T14:29:43.475Z,94.30
2023-06-01T14:32:13.710Z,94.10
2023-06-01T14:34:43.355Z,94.00
2023-06-01T14:37:14.212Z,93.90
2023-06-01T14:39:43.652Z,93.90
2023-06-01T14:42:13.061Z,94.00
2023-06-01T14:44:43.762Z,94.00
2023-06-01T14:47:16.912Z,93.90
2023-06-01T14:49:47.568Z,94.00
2023-06-01T14:52:17.089Z,94.00
2023-06-01T14:54:46.528Z,94.00
2023-06-01T14:57:19.099Z,94.10
2023-06-01T15:00:02.511Z,94.30
2023-06-01T15:02:48.026Z,94.30
2023-06-01T15:05:19.605Z,94.20
2023-06-01T15:10:37.129Z,94.40
2023-06-01T15:13:06.773Z,94.50
2023-06-01T15:15:36.094Z,94.70
2023-06-01T15:18:05.836Z,94.50
2023-06-01T15:20:35.249Z,94.50
2023-06-01T15:23:04.581Z,94.70
2023-06-01T15:25:34.016Z,94.80
2023-06-01T15:28:03.469Z,94.90
2023-06-01T15:30:35.840Z,95.00
2023-06-01T15:35:48.014Z,95.00
2023-06-01T15:38:18.791Z,95.20
2023-06-01T15:40:53.594Z,95.30
2023-06-01T15:43:23.025Z,95.50
2023-06-01T15:45:52.402Z,96.00
2023-06-01T15:48:23.398Z,95.60
2023-06-01T15:50:52.749Z,95.70
2023-06-01T15:53:22.794Z,95.80
2023-06-01T15:55:57.585Z,95.90
2023-06-01T15:58:27.075Z,95.90
2023-06-01T16:01:29.146Z,95.90
2023-06-01T16:03:59.797Z,96.10
2023-06-01T16:06:29.435Z,96.10
2023-06-01T16:09:00.401Z,96.20
2023-06-01T16:11:29.857Z,96.30
2023-06-01T16:13:59.258Z,96.30
2023-06-01T16:16:35.821Z,96.50
2023-06-01T16:19:05.489Z,96.50
2023-06-01T16:21:34.948Z,96.70
2023-06-01T16:24:05.291Z,96.50
2023-06-01T16:26:34.800Z,96.80
2023-06-01T16:31:46.810Z,96.60
2023-06-01T16:34:16.332Z,96.70
2023-06-01T16:36:53.643Z,96.80
2023-06-01T16:39:23.100Z,96.80
2023-06-01T16:41:52.739Z,96.80
2023-06-01T16:44:27.120Z,96.80
2023-06-01T16:49:43.105Z,96.70
2023-06-01T16:52:12.481Z,96.80
2023-06-01T16:54:43.906Z,96.90
2023-06-01T17:00:00.566Z,96.90
2023-06-01T17:02:30.070Z,96.80
2023-06-01T17:04:59.910Z,96.90
2023-06-01T17:07:29.293Z,96.80
2023-06-01T17:09:58.588Z,96.90
2023-06-01T17:12:40.938Z,96.90
2023-06-01T17:15:14.872Z,97.00
2023-06-01T17:17:44.560Z,96.90
2023-06-01T17:20:16.086Z,96.80
2023-06-01T17:22:47.200Z,96.90
2023-06-01T17:25:16.648Z,96.90
2023-06-01T17:30:28.748Z,96.80
2023-06-01T17:32:58.316Z,96.90
2023-06-01T17:40:57.267Z,96.90
2023-06-01T17:43:26.858Z,97.00
2023-06-01T17:51:38.350Z,97.10
2023-06-01T17:54:11.703Z,97.10
2023-06-01T17:56:41.298Z,97.20
2023-06-01T18:01:58.110Z,97.20
2023-06-01T18:04:27.547Z,97.30
2023-06-01T18:06:56.960Z,97.30
2023-06-01T18:12:10.183Z,97.50
2023-06-01T18:14:39.626Z,97.40
2023-06-01T18:17:09.170Z,97.50
2023-06-01T18:19:38.635Z,97.50
2023-06-01T18:22:12.832Z,97.60
2023-06-01T18:24:44.662Z,97.70
2023-06-01T18:29:56.848Z,97.80
2023-06-01T18:32:26.275Z,97.80
2023-06-01T18:34:55.774Z,97.80
2023-06-01T18:37:25.239Z,97.90
2023-06-01T18:39:57.588Z,97.90
2023-06-01T18:42:27.083Z,98.00
2023-06-01T18:44:57.613Z,98.00
2023-06-01T18:47:27.484Z,98.10
2023-06-01T18:49:57.522Z,98.20
2023-06-01T18:52:27.041Z,98.20
2023-06-01T18:54:58.392Z,98.20
2023-06-01T18:57:31.104Z,98.30
2023-06-01T19:00:00.615Z,98.30
2023-06-01T19:02:30.069Z,98.50
2023-06-01T19:05:07.445Z,98.50
2023-06-01T19:07:43.646Z,98.50
2023-06-01T19:10:14.745Z,98.50
2023-06-01T19:12:44.313Z,98.40
2023-06-01T19:15:15.337Z,98.70
2023-06-01T19:17:53.211Z,98.70
2023-06-01T19:20:40.885Z,98.70
2023-06-01T19:23:13.457Z,98.70
2023-06-01T19:25:43.092Z,98.80
2023-06-01T19:28:12.667Z,99.00
2023-06-01T19:30:42.186Z,99.00
2023-06-01T19:33:12.428Z,99.10
2023-06-01T19:35:42.038Z,99.10
2023-06-01T19:38:15.188Z,99.20
2023-06-01T19:40:47.911Z,99.20
2023-06-01T19:43:48.052Z,99.20
2023-06-01T19:46:25.835Z,99.30
2023-06-01T19:48:57.857Z,99.40
2023-06-01T19:51:27.204Z,99.40
2023-06-01T19:53:56.553Z,99.60
2023-06-01T19:56:40.148Z,99.60
2023-06-01T19:59:13.010Z,99.60
2023-06-01T20:01:46.370Z,99.70
2023-06-01T20:04:15.996Z,99.70
2023-06-01T20:06:49.018Z,99.70
2023-06-01T20:09:22.798Z,99.80
2023-06-01T20:11:59.749Z,99.80
2023-06-01T20:14:35.294Z,99.80
2023-06-01T20:17:05.772Z,99.90
2023-06-01T20:19:35.798Z,99.90
2023-06-01T20:22:06.029Z,99.90
2023-06-01T20:24:35.393Z,99.90
2023-06-01T20:27:07.068Z,99.90
2023-06-01T20:29:38.334Z,99.90
2023-06-01T20:32:08.456Z,99.90
2023-06-01T20:34:37.998Z,99.90
2023-06-01T20:37:08.923Z,99.90
2023-06-01T20:39:38.430Z,99.90
2023-06-01T20:42:08.457Z,99.90
2023-06-01T20:44:39.722Z,99.90
2023-06-01T20:47:09.828Z,99.90
2023-06-01T20:49:39.495Z,99.90
2023-06-01T20:52:12.227Z,99.90
2023-06-01T20:54:41.655Z,99.90
2023-06-01T20:57:11.099Z,99.90
2023-06-01T20:59:40.519Z,99.90
2023-06-01T21:02:10.932Z,99.90
2023-06-01T21:04:40.669Z,99.90
2023-06-01T21:07:11.156Z,99.90
2023-06-01T21:09:42.193Z,99.90
2023-06-01T21:12:12.281Z,99.90
2023-06-01T21:14:42.425Z,99.90
2023-06-01T21:17:12.726Z,99.90
2023-06-01T21:19:42.912Z,99.90
2023-06-01T21:22:12.959Z,99.90
2023-06-01T21:24:43.163Z,99.90
2023-06-01T21:27:13.192Z,99.90
2023-06-01T21:29:44.346Z,99.90
2023-06-01T21:32:15.344Z,99.90
2023-06-01T21:34:45.402Z,99.90
2023-06-01T21:37:15.395Z,99.90
2023-06-01T21:39:45.355Z,99.90
2023-06-01T21:42:15.592Z,99.90
2023-06-01T21:44:45.632Z,99.90
2023-06-01T21:47:18.371Z,99.90
2023-06-01T21:49:48.348Z,99.90
2023-06-01T21:52:18.554Z,99.90
2023-06-01T21:54:51.726Z,99.90
2023-06-01T21:57:22.036Z,99.90
2023-06-01T21:59:53.737Z,99.90
2023-06-01T22:02:26.773Z,99.90
2023-06-01T22:04:57.519Z,99.90
2023-06-01T22:07:30.360Z,99.90
2023-06-01T22:10:01.334Z,99.90
2023-06-01T22:12:31.729Z,99.90
2023-06-01T22:15:01.777Z,99.90
2023-06-01T22:17:32.407Z,99.90
2023-06-01T22:20:02.512Z,99.90
2023-06-01T22:22:33.131Z,99.90
2023-06-01T22:25:03.264Z,99.90
2023-06-01T22:27:34.192Z,99.90
2023-06-01T22:30:05.070Z,99.90
2023-06-01T22:32:35.038Z,99.90
2023-06-01T22:35:06.181Z,99.90
2023-06-01T22:37:36.212Z,99.90
2023-06-01T22:40:10.695Z,99.90
2023-06-01T22:42:40.947Z,99.90
2023-06-01T22:45:11.495Z,99.90
2023-06-01T22:47:41.647Z,99.90
2023-06-01T22:50:12.328Z,99.90
2023-06-01T22:52:42.767Z,99.90
2023-06-01T22:55:12.788Z,99.90
2023-06-01T22:57:42.906Z,99.90
2023-06-01T23:00:14.195Z,99.90
2023-06-01T23:02:57.862Z,99.90
2023-06-01T23:05:28.915Z,99.90
2023-06-01T23:07:59.316Z,99.90
2023-06-01T23:10:39.575Z,99.90
2023-06-01T23:13:11.717Z,99.90
2023-06-01T23:15:41.860Z,99.90
2023-06-01T23:18:12.892Z,99.90
2023-06-01T23:20:43.187Z,99.90
2023-06-01T23:23:14.898Z,99.90
2023-06-01T23:25:46.807Z,99.90
2023-06-01T23:28:17.357Z,99.90
2023-06-01T23:30:47.760Z,99.90
2023-06-01T23:33:18.034Z,99.90
2023-06-01T23:35:47.590Z,99.90
2023-06-01T23:38:17.518Z,99.90
2023-06-01T23:40:47.352Z,99.90
2023-06-01T23:43:19.303Z,99.90
2023-06-01T23:45:48.764Z,99.90
2023-06-01T23:48:19.190Z,99.90
2023-06-01T23:50:48.605Z,99.90
2023-06-01T23:53:20.963Z,99.90
2023-06-01T23:55:50.617Z,99.90
2023-06-01T23:58:20.013Z,99.90
